sensor_id;sensor_type;location;lat;lon;timestamp;P1;durP1;ratioP1;P2;durP2;ratioP2
46282;SDS011;32017;43.700;11.820;2023-04-25T00:02:07;5.32;;;4.88;;
46282;SDS011;32017;43.700;11.820;2023-04-25T00:04:27;5.40;;;5.20;;
46282;SDS011;32017;43.700;11.820;2023-04-25T00:06:48;7.47;;;5.20;;
46282;SDS011;32017;43.700;11.820;2023-04-25T00:09:08;8.07;;;5.00;;
46282;SDS011;32017;43.700;11.820;2023-04-25T00:11:30;7.53;;;5.57;;
46282;SDS011;32017;43.700;11.820;2023-04-25T00:13:50;4.78;;;4.57;;
46282;SDS011;32017;43.700;11.820;2023-04-25T00:16:10;6.45;;;4.80;;
46282;SDS011;32017;43.700;11.820;2023-04-25T00:18:30;9.02;;;5.88;;
46282;SDS011;32017;43.700;11.820;2023-04-25T00:20:52;6.95;;;5.90;;
46282;SDS011;32017;43.700;11.820;2023-04-25T00:23:18;4.90;;;4.55;;
46282;SDS011;32017;43.700;11.820;2023-04-25T00:25:38;5.40;;;4.88;;
46282;SDS011;32017;43.700;11.820;2023-04-25T00:27:57;5.22;;;4.82;;
46282;SDS011;32017;43.700;11.820;2023-04-25T00:30:18;5.70;;;5.18;;
46282;SDS011;32017;43.700;11.820;2023-04-25T00:32:37;5.90;;;5.43;;
46282;SDS011;32017;43.700;11.820;2023-04-25T00:34:57;10.60;;;6.05;;
46282;SDS011;32017;43.700;11.820;2023-04-25T00:37:18;7.82;;;5.85;;
46282;SDS011;32017;43.700;11.820;2023-04-25T00:39:39;5.60;;;4.03;;
46282;SDS011;32017;43.700;11.820;2023-04-25T00:41:58;4.50;;;4.28;;
46282;SDS011;32017;43.700;11.820;2023-04-25T00:44:19;4.88;;;4.68;;
46282;SDS011;32017;43.700;11.820;2023-04-25T00:46:40;6.30;;;5.18;;
46282;SDS011;32017;43.700;11.820;2023-04-25T00:49:00;5.63;;;5.35;;
46282;SDS011;32017;43.700;11.820;2023-04-25T00:51:20;9.93;;;4.90;;
46282;SDS011;32017;43.700;11.820;2023-04-25T00:53:40;6.45;;;5.80;;
46282;SDS011;32017;43.700;11.820;2023-04-25T00:56:01;5.18;;;4.78;;
46282;SDS011;32017;43.700;11.820;2023-04-25T00:58:21;5.43;;;4.93;;
46282;SDS011;32017;43.700;11.820;2023-04-25T01:00:41;9.55;;;5.07;;
46282;SDS011;32017;43.700;11.820;2023-04-25T01:03:01;6.70;;;6.18;;
46282;SDS011;32017;43.700;11.820;2023-04-25T01:05:23;8.32;;;5.55;;
46282;SDS011;32017;43.700;11.820;2023-04-25T01:07:43;6.03;;;5.63;;
46282;SDS011;32017;43.700;11.820;2023-04-25T01:10:03;7.47;;;4.03;;
46282;SDS011;32017;43.700;11.820;2023-04-25T01:12:25;6.18;;;5.10;;
46282;SDS011;32017;43.700;11.820;2023-04-25T01:14:44;5.95;;;5.45;;
46282;SDS011;32017;43.700;11.820;2023-04-25T01:17:05;4.95;;;4.57;;
46282;SDS011;32017;43.700;11.820;2023-04-25T01:19:27;5.05;;;3.65;;
46282;SDS011;32017;43.700;11.820;2023-04-25T01:21:46;6.43;;;5.05;;
46282;SDS011;32017;43.700;11.820;2023-04-25T01:24:07;9.75;;;4.82;;
46282;SDS011;32017;43.700;11.820;2023-04-25T01:26:27;6.07;;;5.35;;
46282;SDS011;32017;43.700;11.820;2023-04-25T01:28:47;7.40;;;5.25;;
46282;SDS011;32017;43.700;11.820;2023-04-25T01:31:08;9.45;;;5.30;;
46282;SDS011;32017;43.700;11.820;2023-04-25T01:33:28;7.63;;;5.40;;
46282;SDS011;32017;43.700;11.820;2023-04-25T01:35:49;5.88;;;5.30;;
46282;SDS011;32017;43.700;11.820;2023-04-25T01:38:09;5.85;;;5.45;;
46282;SDS011;32017;43.700;11.820;2023-04-25T01:40:29;13.68;;;5.88;;
46282;SDS011;32017;43.700;11.820;2023-04-25T01:42:49;5.90;;;5.60;;
46282;SDS011;32017;43.700;11.820;2023-04-25T01:45:10;7.38;;;6.78;;
46282;SDS011;32017;43.700;11.820;2023-04-25T01:47:30;8.18;;;7.60;;
46282;SDS011;32017;43.700;11.820;2023-04-25T01:49:52;5.75;;;5.45;;
46282;SDS011;32017;43.700;11.820;2023-04-25T01:52:11;6.68;;;5.45;;
46282;SDS011;32017;43.700;11.820;2023-04-25T01:54:31;6.07;;;5.63;;
46282;SDS011;32017;43.700;11.820;2023-04-25T01:56:51;6.65;;;5.68;;
46282;SDS011;32017;43.700;11.820;2023-04-25T01:59:11;5.18;;;4.93;;
46282;SDS011;32017;43.700;11.820;2023-04-25T02:01:30;5.57;;;5.15;;
46282;SDS011;32017;43.700;11.820;2023-04-25T02:03:51;5.63;;;5.22;;
46282;SDS011;32017;43.700;11.820;2023-04-25T02:06:11;5.53;;;5.22;;
46282;SDS011;32017;43.700;11.820;2023-04-25T02:08:31;6.40;;;5.03;;
46282;SDS011;32017;43.700;11.820;2023-04-25T02:10:51;7.25;;;6.72;;
46282;SDS011;32017;43.700;11.820;2023-04-25T02:13:10;5.85;;;5.38;;
46282;SDS011;32017;43.700;11.820;2023-04-25T02:15:31;6.18;;;5.78;;
46282;SDS011;32017;43.700;11.820;2023-04-25T02:17:50;6.00;;;5.70;;
46282;SDS011;32017;43.700;11.820;2023-04-25T02:20:13;6.05;;;5.78;;
46282;SDS011;32017;43.700;11.820;2023-04-25T02:22:34;6.57;;;5.95;;
46282;SDS011;32017;43.700;11.820;2023-04-25T02:24:54;6.43;;;5.15;;
46282;SDS011;32017;43.700;11.820;2023-04-25T02:27:13;8.82;;;5.90;;
46282;SDS011;32017;43.700;11.820;2023-04-25T02:29:34;6.60;;;6.13;;
46282;SDS011;32017;43.700;11.820;2023-04-25T02:31:54;5.43;;;5.10;;
46282;SDS011;32017;43.700;11.820;2023-04-25T02:34:14;7.03;;;6.55;;
46282;SDS011;32017;43.700;11.820;2023-04-25T02:36:34;6.32;;;4.88;;
46282;SDS011;32017;43.700;11.820;2023-04-25T02:38:54;7.75;;;7.15;;
46282;SDS011;32017;43.700;11.820;2023-04-25T02:41:14;6.35;;;3.88;;
46282;SDS011;32017;43.700;11.820;2023-04-25T02:43:34;7.80;;;4.70;;
46282;SDS011;32017;43.700;11.820;2023-04-25T02:45:54;9.73;;;5.63;;
46282;SDS011;32017;43.700;11.820;2023-04-25T02:48:14;11.52;;;5.05;;
46282;SDS011;32017;43.700;11.820;2023-04-25T02:50:34;4.40;;;3.95;;
46282;SDS011;32017;43.700;11.820;2023-04-25T02:52:53;6.47;;;4.50;;
46282;SDS011;32017;43.700;11.820;2023-04-25T02:55:14;5.72;;;4.95;;
46282;SDS011;32017;43.700;11.820;2023-04-25T02:57:33;6.88;;;5.18;;
46282;SDS011;32017;43.700;11.820;2023-04-25T02:59:54;7.10;;;5.03;;
46282;SDS011;32017;43.700;11.820;2023-04-25T03:02:13;10.18;;;5.45;;
46282;SDS011;32017;43.700;11.820;2023-04-25T03:04:33;9.13;;;5.20;;
46282;SDS011;32017;43.700;11.820;2023-04-25T03:06:54;9.00;;;4.50;;
46282;SDS011;32017;43.700;11.820;2023-04-25T03:09:14;8.82;;;4.82;;
46282;SDS011;32017;43.700;11.820;2023-04-25T03:11:33;6.82;;;4.95;;
46282;SDS011;32017;43.700;11.820;2023-04-25T03:13:53;9.38;;;5.80;;
46282;SDS011;32017;43.700;11.820;2023-04-25T03:16:12;10.40;;;5.80;;
46282;SDS011;32017;43.700;11.820;2023-04-25T03:18:32;9.07;;;6.50;;
46282;SDS011;32017;43.700;11.820;2023-04-25T03:20:52;4.57;;;4.20;;
46282;SDS011;32017;43.700;11.820;2023-04-25T03:23:12;5.57;;;5.18;;
46282;SDS011;32017;43.700;11.820;2023-04-25T03:25:32;9.45;;;5.32;;
46282;SDS011;32017;43.700;11.820;2023-04-25T03:27:51;6.38;;;5.78;;
46282;SDS011;32017;43.700;11.820;2023-04-25T03:30:11;7.68;;;4.70;;
46282;SDS011;32017;43.700;11.820;2023-04-25T03:32:31;6.88;;;6.13;;
46282;SDS011;32017;43.700;11.820;2023-04-25T03:34:51;6.85;;;4.70;;
46282;SDS011;32017;43.700;11.820;2023-04-25T03:37:10;7.68;;;4.85;;
46282;SDS011;32017;43.700;11.820;2023-04-25T03:39:30;6.10;;;4.20;;
46282;SDS011;32017;43.700;11.820;2023-04-25T03:41:50;4.40;;;4.13;;
46282;SDS011;32017;43.700;11.820;2023-04-25T03:44:10;6.20;;;4.40;;
46282;SDS011;32017;43.700;11.820;2023-04-25T03:46:29;6.03;;;5.03;;
46282;SDS011;32017;43.700;11.820;2023-04-25T03:48:49;5.78;;;4.10;;
46282;SDS011;32017;43.700;11.820;2023-04-25T03:51:09;5.88;;;5.45;;
46282;SDS011;32017;43.700;11.820;2023-04-25T03:53:28;6.40;;;4.90;;
46282;SDS011;32017;43.700;11.820;2023-04-25T03:55:48;5.20;;;4.40;;
46282;SDS011;32017;43.700;11.820;2023-04-25T03:58:08;6.07;;;5.05;;
46282;SDS011;32017;43.700;11.820;2023-04-25T04:00:28;9.02;;;5.63;;
46282;SDS011;32017;43.700;11.820;2023-04-25T04:02:47;11.30;;;5.82;;
46282;SDS011;32017;43.700;11.820;2023-04-25T04:05:07;9.82;;;5.50;;
46282;SDS011;32017;43.700;11.820;2023-04-25T04:07:28;10.45;;;5.18;;
46282;SDS011;32017;43.700;11.820;2023-04-25T04:09:48;4.70;;;4.50;;
46282;SDS011;32017;43.700;11.820;2023-04-25T04:12:09;5.22;;;4.75;;
46282;SDS011;32017;43.700;11.820;2023-04-25T04:14:29;6.05;;;5.15;;
46282;SDS011;32017;43.700;11.820;2023-04-25T04:16:50;6.20;;;5.80;;
46282;SDS011;32017;43.700;11.820;2023-04-25T04:19:10;6.03;;;5.75;;
46282;SDS011;32017;43.700;11.820;2023-04-25T04:21:30;5.50;;;5.30;;
46282;SDS011;32017;43.700;11.820;2023-04-25T04:23:51;6.30;;;5.75;;
46282;SDS011;32017;43.700;11.820;2023-04-25T04:26:11;6.28;;;5.72;;
46282;SDS011;32017;43.700;11.820;2023-04-25T04:28:32;10.73;;;5.55;;
46282;SDS011;32017;43.700;11.820;2023-04-25T04:30:52;11.73;;;5.18;;
46282;SDS011;32017;43.700;11.820;2023-04-25T04:33:11;11.73;;;4.45;;
46282;SDS011;32017;43.700;11.820;2023-04-25T04:35:31;11.38;;;5.55;;
46282;SDS011;32017;43.700;11.820;2023-04-25T04:37:51;6.07;;;4.60;;
46282;SDS011;32017;43.700;11.820;2023-04-25T04:40:11;8.18;;;5.15;;
46282;SDS011;32017;43.700;11.820;2023-04-25T04:42:34;10.23;;;4.95;;
46282;SDS011;32017;43.700;11.820;2023-04-25T04:44:55;7.45;;;4.93;;
46282;SDS011;32017;43.700;11.820;2023-04-25T04:47:15;6.68;;;5.45;;
46282;SDS011;32017;43.700;11.820;2023-04-25T04:49:34;10.23;;;5.07;;
46282;SDS011;32017;43.700;11.820;2023-04-25T04:51:55;11.35;;;5.65;;
46282;SDS011;32017;43.700;11.820;2023-04-25T04:54:18;11.38;;;5.65;;
46282;SDS011;32017;43.700;11.820;2023-04-25T04:56:38;7.68;;;4.63;;
46282;SDS011;32017;43.700;11.820;2023-04-25T04:58:58;9.55;;;4.20;;
46282;SDS011;32017;43.700;11.820;2023-04-25T05:01:18;5.97;;;5.22;;
46282;SDS011;32017;43.700;11.820;2023-04-25T05:03:38;8.20;;;4.13;;
46282;SDS011;32017;43.700;11.820;2023-04-25T05:05:58;11.75;;;5.50;;
46282;SDS011;32017;43.700;11.820;2023-04-25T05:08:19;9.23;;;5.10;;
46282;SDS011;32017;43.700;11.820;2023-04-25T05:10:38;8.35;;;6.72;;
46282;SDS011;32017;43.700;11.820;2023-04-25T05:12:58;5.32;;;4.45;;
46282;SDS011;32017;43.700;11.820;2023-04-25T05:15:18;4.30;;;4.00;;
46282;SDS011;32017;43.700;11.820;2023-04-25T05:17:38;5.40;;;4.63;;
46282;SDS011;32017;43.700;11.820;2023-04-25T05:19:58;4.90;;;4.57;;
46282;SDS011;32017;43.700;11.820;2023-04-25T05:22:18;10.88;;;4.18;;
46282;SDS011;32017;43.700;11.820;2023-04-25T05:24:38;5.10;;;4.47;;
46282;SDS011;32017;43.700;11.820;2023-04-25T05:26:58;6.55;;;5.55;;
46282;SDS011;32017;43.700;11.820;2023-04-25T05:29:18;5.28;;;4.88;;
46282;SDS011;32017;43.700;11.820;2023-04-25T05:31:38;5.45;;;3.85;;
46282;SDS011;32017;43.700;11.820;2023-04-25T05:33:58;7.85;;;4.15;;
46282;SDS011;32017;43.700;11.820;2023-04-25T05:36:18;5.47;;;3.72;;
46282;SDS011;32017;43.700;11.820;2023-04-25T05:38:38;9.25;;;6.07;;
46282;SDS011;32017;43.700;11.820;2023-04-25T05:40:58;9.82;;;3.85;;
46282;SDS011;32017;43.700;11.820;2023-04-25T05:43:17;9.05;;;4.07;;
46282;SDS011;32017;43.700;11.820;2023-04-25T05:45:37;4.97;;;3.90;;
46282;SDS011;32017;43.700;11.820;2023-04-25T05:47:57;7.47;;;3.85;;
46282;SDS011;32017;43.700;11.820;2023-04-25T05:50:17;5.45;;;4.85;;
46282;SDS011;32017;43.700;11.820;2023-04-25T05:52:37;6.30;;;4.18;;
46282;SDS011;32017;43.700;11.820;2023-04-25T05:54:58;6.95;;;5.85;;
46282;SDS011;32017;43.700;11.820;2023-04-25T05:57:25;9.30;;;4.18;;
46282;SDS011;32017;43.700;11.820;2023-04-25T05:59:46;10.10;;;5.30;;
46282;SDS011;32017;43.700;11.820;2023-04-25T06:02:05;14.98;;;4.90;;
46282;SDS011;32017;43.700;11.820;2023-04-25T06:04:25;5.43;;;5.13;;
46282;SDS011;32017;43.700;11.820;2023-04-25T06:06:46;13.77;;;7.20;;
46282;SDS011;32017;43.700;11.820;2023-04-25T06:09:05;7.07;;;4.72;;
46282;SDS011;32017;43.700;11.820;2023-04-25T06:11:25;8.15;;;6.55;;
46282;SDS011;32017;43.700;11.820;2023-04-25T06:13:45;5.50;;;5.03;;
46282;SDS011;32017;43.700;11.820;2023-04-25T06:16:05;9.80;;;5.20;;
46282;SDS011;32017;43.700;11.820;2023-04-25T06:18:25;7.57;;;6.18;;
46282;SDS011;32017;43.700;11.820;2023-04-25T06:20:45;7.60;;;6.90;;
46282;SDS011;32017;43.700;11.820;2023-04-25T06:23:05;9.00;;;6.55;;
46282;SDS011;32017;43.700;11.820;2023-04-25T06:25:25;11.80;;;5.90;;
46282;SDS011;32017;43.700;11.820;2023-04-25T06:27:45;6.15;;;5.28;;
46282;SDS011;32017;43.700;11.820;2023-04-25T06:30:05;5.65;;;5.07;;
46282;SDS011;32017;43.700;11.820;2023-04-25T06:32:27;48.10;;;7.20;;
46282;SDS011;32017;43.700;11.820;2023-04-25T06:34:49;6.00;;;5.53;;
46282;SDS011;32017;43.700;11.820;2023-04-25T06:37:09;8.90;;;4.10;;
46282;SDS011;32017;43.700;11.820;2023-04-25T06:39:29;9.15;;;4.55;;
46282;SDS011;32017;43.700;11.820;2023-04-25T06:41:49;10.40;;;5.70;;
46282;SDS011;32017;43.700;11.820;2023-04-25T06:44:08;4.22;;;3.90;;
46282;SDS011;32017;43.700;11.820;2023-04-25T06:46:28;6.28;;;4.03;;
46282;SDS011;32017;43.700;11.820;2023-04-25T06:48:48;7.90;;;4.85;;
46282;SDS011;32017;43.700;11.820;2023-04-25T06:51:09;11.13;;;4.18;;
46282;SDS011;32017;43.700;11.820;2023-04-25T06:53:29;5.68;;;3.55;;
46282;SDS011;32017;43.700;11.820;2023-04-25T06:55:49;10.50;;;3.85;;
46282;SDS011;32017;43.700;11.820;2023-04-25T06:58:09;5.35;;;4.70;;
46282;SDS011;32017;43.700;11.820;2023-04-25T07:00:29;7.97;;;4.05;;
46282;SDS011;32017;43.700;11.820;2023-04-25T07:02:50;6.25;;;3.92;;
46282;SDS011;32017;43.700;11.820;2023-04-25T07:05:10;5.95;;;3.80;;
46282;SDS011;32017;43.700;11.820;2023-04-25T07:07:30;10.85;;;5.55;;
46282;SDS011;32017;43.700;11.820;2023-04-25T07:09:50;5.00;;;3.45;;
46282;SDS011;32017;43.700;11.820;2023-04-25T07:12:10;6.85;;;4.15;;
46282;SDS011;32017;43.700;11.820;2023-04-25T07:14:29;8.05;;;4.20;;
46282;SDS011;32017;43.700;11.820;2023-04-25T07:16:49;7.50;;;5.18;;
46282;SDS011;32017;43.700;11.820;2023-04-25T07:19:09;7.60;;;4.05;;
46282;SDS011;32017;43.700;11.820;2023-04-25T07:21:29;7.68;;;3.97;;
46282;SDS011;32017;43.700;11.820;2023-04-25T07:23:50;8.88;;;4.88;;
46282;SDS011;32017;43.700;11.820;2023-04-25T07:26:10;8.75;;;4.10;;
46282;SDS011;32017;43.700;11.820;2023-04-25T07:28:29;7.50;;;3.63;;
46282;SDS011;32017;43.700;11.820;2023-04-25T07:30:49;7.03;;;3.50;;
46282;SDS011;32017;43.700;11.820;2023-04-25T07:33:09;16.38;;;4.13;;
46282;SDS011;32017;43.700;11.820;2023-04-25T07:35:30;7.45;;;2.72;;
46282;SDS011;32017;43.700;11.820;2023-04-25T07:37:49;5.63;;;4.47;;
46282;SDS011;32017;43.700;11.820;2023-04-25T07:40:09;6.80;;;5.03;;
46282;SDS011;32017;43.700;11.820;2023-04-25T07:42:29;4.85;;;3.55;;
46282;SDS011;32017;43.700;11.820;2023-04-25T07:44:49;9.93;;;4.40;;
46282;SDS011;32017;43.700;11.820;2023-04-25T07:47:10;4.00;;;3.60;;
46282;SDS011;32017;43.700;11.820;2023-04-25T07:49:30;10.05;;;5.28;;
46282;SDS011;32017;43.700;11.820;2023-04-25T07:51:50;5.57;;;5.07;;
46282;SDS011;32017;43.700;11.820;2023-04-25T07:54:11;6.35;;;4.57;;
46282;SDS011;32017;43.700;11.820;2023-04-25T07:56:32;8.82;;;4.55;;
46282;SDS011;32017;43.700;11.820;2023-04-25T07:59:10;7.30;;;4.07;;
46282;SDS011;32017;43.700;11.820;2023-04-25T08:01:30;7.38;;;4.70;;
46282;SDS011;32017;43.700;11.820;2023-04-25T08:03:50;5.85;;;3.70;;
46282;SDS011;32017;43.700;11.820;2023-04-25T08:06:10;11.73;;;3.97;;
46282;SDS011;32017;43.700;11.820;2023-04-25T08:08:30;4.60;;;4.15;;
46282;SDS011;32017;43.700;11.820;2023-04-25T08:10:50;7.90;;;4.00;;
46282;SDS011;32017;43.700;11.820;2023-04-25T08:13:09;6.88;;;4.55;;
46282;SDS011;32017;43.700;11.820;2023-04-25T08:15:29;6.25;;;3.92;;
46282;SDS011;32017;43.700;11.820;2023-04-25T08:17:49;3.95;;;3.40;;
46282;SDS011;32017;43.700;11.820;2023-04-25T08:20:09;6.38;;;3.90;;
46282;SDS011;32017;43.700;11.820;2023-04-25T08:22:30;9.57;;;3.60;;
46282;SDS011;32017;43.700;11.820;2023-04-25T08:24:50;3.63;;;3.33;;
46282;SDS011;32017;43.700;11.820;2023-04-25T08:27:10;7.20;;;3.92;;
46282;SDS011;32017;43.700;11.820;2023-04-25T08:29:29;7.05;;;4.07;;
46282;SDS011;32017;43.700;11.820;2023-04-25T08:31:49;4.97;;;3.67;;
46282;SDS011;32017;43.700;11.820;2023-04-25T08:34:09;3.72;;;3.38;;
46282;SDS011;32017;43.700;11.820;2023-04-25T08:36:30;6.63;;;3.60;;
46282;SDS011;32017;43.700;11.820;2023-04-25T08:38:58;8.75;;;3.70;;
46282;SDS011;32017;43.700;11.820;2023-04-25T08:41:19;5.60;;;3.10;;
46282;SDS011;32017;43.700;11.820;2023-04-25T08:43:40;2.90;;;2.70;;
46282;SDS011;32017;43.700;11.820;2023-04-25T08:46:02;3.33;;;2.83;;
46282;SDS011;32017;43.700;11.820;2023-04-25T08:48:22;8.23;;;3.97;;
46282;SDS011;32017;43.700;11.820;2023-04-25T08:50:49;5.93;;;3.38;;
46282;SDS011;32017;43.700;11.820;2023-04-25T08:53:11;5.35;;;2.92;;
46282;SDS011;32017;43.700;11.820;2023-04-25T08:55:37;4.18;;;2.40;;
46282;SDS011;32017;43.700;11.820;2023-04-25T08:58:00;3.92;;;3.65;;
46282;SDS011;32017;43.700;11.820;2023-04-25T09:00:21;4.07;;;2.95;;
46282;SDS011;32017;43.700;11.820;2023-04-25T09:02:42;3.85;;;3.35;;
46282;SDS011;32017;43.700;11.820;2023-04-25T09:05:03;2.78;;;2.35;;
46282;SDS011;32017;43.700;11.820;2023-04-25T09:07:26;6.32;;;3.17;;
46282;SDS011;32017;43.700;11.820;2023-04-25T09:09:46;3.65;;;2.63;;
46282;SDS011;32017;43.700;11.820;2023-04-25T09:12:05;4.57;;;2.08;;
46282;SDS011;32017;43.700;11.820;2023-04-25T09:14:25;3.55;;;2.63;;
46282;SDS011;32017;43.700;11.820;2023-04-25T09:19:22;6.45;;;3.22;;
46282;SDS011;32017;43.700;11.820;2023-04-25T09:21:59;7.07;;;2.67;;
46282;SDS011;32017;43.700;11.820;2023-04-25T09:24:32;4.43;;;2.10;;
46282;SDS011;32017;43.700;11.820;2023-04-25T09:27:02;4.82;;;3.30;;
46282;SDS011;32017;43.700;11.820;2023-04-25T09:29:30;2.15;;;1.95;;
46282;SDS011;32017;43.700;11.820;2023-04-25T09:31:54;3.22;;;2.08;;
46282;SDS011;32017;43.700;11.820;2023-04-25T09:35:11;3.00;;;2.88;;
46282;SDS011;32017;43.700;11.820;2023-04-25T09:39:46;2.97;;;2.28;;
46282;SDS011;32017;43.700;11.820;2023-04-25T09:42:10;9.18;;;3.00;;
46282;SDS011;32017;43.700;11.820;2023-04-25T09:44:29;4.93;;;2.80;;
46282;SDS011;32017;43.700;11.820;2023-04-25T09:46:49;16.45;;;11.48;;
46282;SDS011;32017;43.700;11.820;2023-04-25T09:49:14;9.90;;;7.78;;
46282;SDS011;32017;43.700;11.820;2023-04-25T09:51:34;3.20;;;2.22;;
46282;SDS011;32017;43.700;11.820;2023-04-25T09:53:53;6.90;;;3.28;;
46282;SDS011;32017;43.700;11.820;2023-04-25T09:56:13;3.83;;;3.00;;
46282;SDS011;32017;43.700;11.820;2023-04-25T09:58:33;4.18;;;2.72;;
46282;SDS011;32017;43.700;11.820;2023-04-25T10:00:55;5.13;;;3.15;;
46282;SDS011;32017;43.700;11.820;2023-04-25T10:03:20;4.45;;;2.30;;
46282;SDS011;32017;43.700;11.820;2023-04-25T10:05:42;6.18;;;3.65;;
46282;SDS011;32017;43.700;11.820;2023-04-25T10:08:03;3.45;;;1.70;;
46282;SDS011;32017;43.700;11.820;2023-04-25T10:10:23;2.75;;;2.25;;
46282;SDS011;32017;43.700;11.820;2023-04-25T10:12:48;4.88;;;2.38;;
46282;SDS011;32017;43.700;11.820;2023-04-25T10:15:08;3.58;;;1.73;;
46282;SDS011;32017;43.700;11.820;2023-04-25T10:17:30;6.78;;;2.17;;
46282;SDS011;32017;43.700;11.820;2023-04-25T10:19:51;4.38;;;1.80;;
46282;SDS011;32017;43.700;11.820;2023-04-25T10:22:14;2.28;;;2.10;;
46282;SDS011;32017;43.700;11.820;2023-04-25T10:24:49;3.92;;;1.48;;
46282;SDS011;32017;43.700;11.820;2023-04-25T10:27:10;3.20;;;1.52;;
46282;SDS011;32017;43.700;11.820;2023-04-25T10:29:29;5.05;;;1.40;;
46282;SDS011;32017;43.700;11.820;2023-04-25T10:31:49;2.20;;;1.55;;
46282;SDS011;32017;43.700;11.820;2023-04-25T10:34:10;3.55;;;1.30;;
46282;SDS011;32017;43.700;11.820;2023-04-25T10:36:32;2.70;;;1.65;;
46282;SDS011;32017;43.700;11.820;2023-04-25T10:38:53;3.75;;;1.63;;
46282;SDS011;32017;43.700;11.820;2023-04-25T10:41:13;1.67;;;1.33;;
46282;SDS011;32017;43.700;11.820;2023-04-25T10:43:35;2.60;;;1.42;;
46282;SDS011;32017;43.700;11.820;2023-04-25T10:46:01;3.22;;;2.08;;
46282;SDS011;32017;43.700;11.820;2023-04-25T10:48:43;3.00;;;1.33;;
46282;SDS011;32017;43.700;11.820;2023-04-25T10:51:18;1.55;;;1.40;;
46282;SDS011;32017;43.700;11.820;2023-04-25T10:53:46;3.42;;;1.70;;
46282;SDS011;32017;43.700;11.820;2023-04-25T10:56:19;2.15;;;1.85;;
46282;SDS011;32017;43.700;11.820;2023-04-25T10:58:43;4.10;;;2.65;;
46282;SDS011;32017;43.700;11.820;2023-04-25T11:01:05;2.05;;;1.33;;
46282;SDS011;32017;43.700;11.820;2023-04-25T11:03:26;4.38;;;1.88;;
46282;SDS011;32017;43.700;11.820;2023-04-25T11:05:46;7.75;;;1.98;;
46282;SDS011;32017;43.700;11.820;2023-04-25T11:08:33;2.85;;;1.80;;
46282;SDS011;32017;43.700;11.820;2023-04-25T11:11:07;1.50;;;1.30;;
46282;SDS011;32017;43.700;11.820;2023-04-25T11:13:30;1.50;;;1.40;;
46282;SDS011;32017;43.700;11.820;2023-04-25T11:15:51;7.25;;;2.65;;
46282;SDS011;32017;43.700;11.820;2023-04-25T11:18:31;1.75;;;1.30;;
46282;SDS011;32017;43.700;11.820;2023-04-25T11:20:51;1.95;;;1.60;;
46282;SDS011;32017;43.700;11.820;2023-04-25T11:23:11;2.13;;;1.40;;
46282;SDS011;32017;43.700;11.820;2023-04-25T11:25:31;3.65;;;1.85;;
46282;SDS011;32017;43.700;11.820;2023-04-25T11:27:52;1.33;;;1.23;;
46282;SDS011;32017;43.700;11.820;2023-04-25T11:30:13;3.00;;;1.75;;
46282;SDS011;32017;43.700;11.820;2023-04-25T11:32:34;3.10;;;1.20;;
46282;SDS011;32017;43.700;11.820;2023-04-25T11:34:54;3.50;;;1.83;;
46282;SDS011;32017;43.700;11.820;2023-04-25T11:37:15;2.25;;;1.30;;
46282;SDS011;32017;43.700;11.820;2023-04-25T11:39:35;3.13;;;1.30;;
46282;SDS011;32017;43.700;11.820;2023-04-25T11:41:54;2.00;;;1.42;;
46282;SDS011;32017;43.700;11.820;2023-04-25T11:44:18;3.63;;;1.42;;
46282;SDS011;32017;43.700;11.820;2023-04-25T11:46:39;2.97;;;1.17;;
46282;SDS011;32017;43.700;11.820;2023-04-25T11:48:58;4.43;;;1.83;;
46282;SDS011;32017;43.700;11.820;2023-04-25T11:51:18;3.72;;;1.10;;
46282;SDS011;32017;43.700;11.820;2023-04-25T11:53:40;5.35;;;1.98;;
46282;SDS011;32017;43.700;11.820;2023-04-25T11:56:01;5.03;;;1.20;;
46282;SDS011;32017;43.700;11.820;2023-04-25T11:58:29;4.78;;;1.42;;
46282;SDS011;32017;43.700;11.820;2023-04-25T12:00:49;4.85;;;2.10;;
46282;SDS011;32017;43.700;11.820;2023-04-25T12:03:10;2.17;;;1.30;;
46282;SDS011;32017;43.700;11.820;2023-04-25T12:05:30;3.13;;;1.30;;
46282;SDS011;32017;43.700;11.820;2023-04-25T12:07:54;6.30;;;1.58;;
46282;SDS011;32017;43.700;11.820;2023-04-25T12:10:15;2.55;;;1.92;;
46282;SDS011;32017;43.700;11.820;2023-04-25T12:12:36;2.30;;;1.10;;
46282;SDS011;32017;43.700;11.820;2023-04-25T12:14:56;3.25;;;1.10;;
46282;SDS011;32017;43.700;11.820;2023-04-25T12:17:28;4.63;;;2.65;;
46282;SDS011;32017;43.700;11.820;2023-04-25T12:19:48;2.63;;;1.25;;
46282;SDS011;32017;43.700;11.820;2023-04-25T12:22:21;6.13;;;1.75;;
46282;SDS011;32017;43.700;11.820;2023-04-25T12:24:44;3.85;;;1.30;;
46282;SDS011;32017;43.700;11.820;2023-04-25T12:27:04;2.70;;;1.10;;
46282;SDS011;32017;43.700;11.820;2023-04-25T12:29:26;1.20;;;1.10;;
46282;SDS011;32017;43.700;11.820;2023-04-25T12:31:57;2.00;;;1.00;;
46282;SDS011;32017;43.700;11.820;2023-04-25T12:34:18;1.27;;;0.90;;
46282;SDS011;32017;43.700;11.820;2023-04-25T12:36:38;1.60;;;0.90;;
46282;SDS011;32017;43.700;11.820;2023-04-25T12:38:58;1.10;;;0.88;;
46282;SDS011;32017;43.700;11.820;2023-04-25T12:41:23;1.13;;;1.08;;
46282;SDS011;32017;43.700;11.820;2023-04-25T12:43:42;0.90;;;0.90;;
46282;SDS011;32017;43.700;11.820;2023-04-25T12:46:02;0.90;;;0.90;;
46282;SDS011;32017;43.700;11.820;2023-04-25T12:48:22;1.00;;;1.00;;
46282;SDS011;32017;43.700;11.820;2023-04-25T12:50:42;1.00;;;1.00;;
46282;SDS011;32017;43.700;11.820;2023-04-25T12:53:02;3.35;;;1.67;;
46282;SDS011;32017;43.700;11.820;2023-04-25T12:55:23;1.30;;;1.20;;
46282;SDS011;32017;43.700;11.820;2023-04-25T12:57:43;1.10;;;1.10;;
46282;SDS011;32017;43.700;11.820;2023-04-25T13:00:02;1.25;;;1.15;;
46282;SDS011;32017;43.700;11.820;2023-04-25T13:02:23;1.80;;;1.55;;
46282;SDS011;32017;43.700;11.820;2023-04-25T13:04:44;1.20;;;1.20;;
46282;SDS011;32017;43.700;11.820;2023-04-25T13:07:04;1.10;;;1.10;;
46282;SDS011;32017;43.700;11.820;2023-04-25T13:09:24;1.48;;;1.48;;
46282;SDS011;32017;43.700;11.820;2023-04-25T13:11:44;2.08;;;1.85;;
46282;SDS011;32017;43.700;11.820;2023-04-25T13:14:05;3.05;;;2.13;;
46282;SDS011;32017;43.700;11.820;2023-04-25T13:16:25;3.08;;;1.80;;
46282;SDS011;32017;43.700;11.820;2023-04-25T13:18:45;2.17;;;2.08;;
46282;SDS011;32017;43.700;11.820;2023-04-25T13:21:05;2.03;;;1.80;;
46282;SDS011;32017;43.700;11.820;2023-04-25T13:23:25;1.60;;;1.50;;
46282;SDS011;32017;43.700;11.820;2023-04-25T13:25:46;2.70;;;2.38;;
46282;SDS011;32017;43.700;11.820;2023-04-25T13:28:06;1.50;;;1.40;;
46282;SDS011;32017;43.700;11.820;2023-04-25T13:30:25;1.70;;;1.60;;
46282;SDS011;32017;43.700;11.820;2023-04-25T13:32:45;1.60;;;1.60;;
46282;SDS011;32017;43.700;11.820;2023-04-25T13:35:07;1.60;;;1.60;;
46282;SDS011;32017;43.700;11.820;2023-04-25T13:37:31;3.35;;;3.22;;
46282;SDS011;32017;43.700;11.820;2023-04-25T13:39:51;1.98;;;1.98;;
46282;SDS011;32017;43.700;11.820;2023-04-25T13:42:12;2.40;;;2.30;;
46282;SDS011;32017;43.700;11.820;2023-04-25T13:44:32;2.83;;;2.70;;
46282;SDS011;32017;43.700;11.820;2023-04-25T13:46:52;2.72;;;2.53;;
46282;SDS011;32017;43.700;11.820;2023-04-25T13:49:12;2.88;;;2.75;;
46282;SDS011;32017;43.700;11.820;2023-04-25T13:51:32;2.92;;;2.72;;
46282;SDS011;32017;43.700;11.820;2023-04-25T13:53:52;2.42;;;2.20;;
46282;SDS011;32017;43.700;11.820;2023-04-25T13:56:12;3.72;;;2.25;;
46282;SDS011;32017;43.700;11.820;2023-04-25T13:58:32;3.63;;;2.45;;
46282;SDS011;32017;43.700;11.820;2023-04-25T14:00:52;5.28;;;3.03;;
46282;SDS011;32017;43.700;11.820;2023-04-25T14:03:12;2.60;;;2.47;;